createdAt,value
2022-11-15T00:01:01.683Z,100236.16
2022-11-15T00:03:29.886Z,100224.16
2022-11-15T00:06:03.552Z,100223.56
2022-11-15T00:08:32.959Z,100227.31
2022-11-15T00:11:02.118Z,100222.34
2022-11-15T00:13:30.696Z,100198.53
2022-11-15T00:15:59.225Z,100198.72
2022-11-15T00:18:26.899Z,100209.06
2022-11-15T00:20:54.584Z,100200.06
2022-11-15T00:23:22.289Z,100194.03
2022-11-15T00:25:57.392Z,100204.38
2022-11-15T00:28:25.046Z,100191.38
2022-11-15T00:30:52.842Z,100205.97
2022-11-15T00:33:20.548Z,100214.53
2022-11-15T00:35:48.256Z,100199.75
2022-11-15T00:38:15.944Z,100202.75
2022-11-15T00:40:43.648Z,100200.78
2022-11-15T00:43:12.667Z,100194.88
2022-11-15T00:45:40.362Z,100202.34
2022-11-15T00:48:08.007Z,100179.72
2022-11-15T00:50:35.636Z,100185.66
2022-11-15T00:53:03.286Z,100185.28
2022-11-15T00:55:30.942Z,100194.09
2022-11-15T00:57:58.612Z,100186.94
2022-11-15T01:00:27.662Z,100183.59
2022-11-15T01:02:55.315Z,100187.69
2022-11-15T01:05:23.188Z,100175.69
2022-11-15T01:07:53.781Z,100183.75
2022-11-15T01:10:21.435Z,100180.72
2022-11-15T01:12:49.149Z,100169.25
2022-11-15T01:15:16.925Z,100168.13
2022-11-15T01:17:45.904Z,100173.34
2022-11-15T01:20:14.281Z,100173.59
2022-11-15T01:22:41.899Z,100180.00
2022-11-15T01:25:09.813Z,100167.06
2022-11-15T01:27:37.478Z,100161.84
2022-11-15T01:30:06.297Z,100153.84
2022-11-15T01:32:33.989Z,100154.38
2022-11-15T01:35:02.981Z,100149.31
2022-11-15T01:37:30.608Z,100144.03
2022-11-15T01:39:58.265Z,100151.22
2022-11-15T01:42:25.900Z,100137.19
2022-11-15T01:44:55.762Z,100146.84
2022-11-15T01:47:25.956Z,100141.88
2022-11-15T01:49:59.110Z,100148.56
2022-11-15T01:52:30.254Z,100145.84
2022-11-15T01:55:02.596Z,100140.69
2022-11-15T01:57:30.297Z,100140.00
2022-11-15T01:59:59.412Z,100129.22
2022-11-15T02:02:27.059Z,100132.31
2022-11-15T02:04:54.860Z,100121.22
2022-11-15T02:07:23.415Z,100118.63
2022-11-15T02:09:52.982Z,100124.94
2022-11-15T02:12:22.268Z,100122.66
2022-11-15T02:14:51.778Z,100111.88
2022-11-15T02:17:31.723Z,100116.09
2022-11-15T02:20:16.363Z,100110.22
2022-11-15T02:22:53.956Z,100114.66
2022-11-15T02:25:40.288Z,100113.44
2022-11-15T02:28:38.880Z,100112.19
2022-11-15T02:31:13.363Z,100107.53
2022-11-15T02:33:44.819Z,100112.78
2022-11-15T02:36:15.674Z,100117.72
2022-11-15T02:38:48.871Z,100110.25
2022-11-15T02:41:19.357Z,100105.16
2022-11-15T02:44:07.089Z,100107.44
2022-11-15T02:46:56.761Z,100116.91
2022-11-15T02:49:25.966Z,100103.69
2022-11-15T02:51:54.596Z,100098.78
2022-11-15T02:54:24.536Z,100099.38
2022-11-15T02:56:54.227Z,100094.94
2022-11-15T02:59:50.610Z,100098.00
2022-11-15T03:02:33.534Z,100108.88
2022-11-15T03:05:06.695Z,100111.41
2022-11-15T03:07:37.808Z,100111.50
2022-11-15T03:10:09.227Z,100108.47
2022-11-15T03:12:40.121Z,100093.88
2022-11-15T03:15:10.265Z,100099.16
2022-11-15T03:17:42.427Z,100081.53
2022-11-15T03:20:11.485Z,100098.97
2022-11-15T03:22:41.507Z,100105.09
2022-11-15T03:25:11.268Z,100088.81
2022-11-15T03:27:41.335Z,100093.13
2022-11-15T03:30:10.933Z,100094.09
2022-11-15T03:32:42.809Z,100094.16
2022-11-15T03:35:12.702Z,100089.66
2022-11-15T03:37:43.660Z,100092.81
2022-11-15T03:40:12.104Z,100084.00
2022-11-15T03:42:43.883Z,100093.41
2022-11-15T03:45:16.222Z,100071.69
2022-11-15T03:47:49.579Z,100089.81
2022-11-15T03:50:19.873Z,100077.00
2022-11-15T03:52:48.989Z,100081.53
2022-11-15T03:55:20.118Z,100065.34
2022-11-15T03:57:49.399Z,100097.84
2022-11-15T04:00:17.863Z,100090.97
2022-11-15T04:02:46.860Z,100086.59
2022-11-15T04:05:14.519Z,100087.34
2022-11-15T04:07:42.175Z,100099.13
2022-11-15T04:10:11.109Z,100089.78
2022-11-15T04:12:41.627Z,100085.91
2022-11-15T04:15:11.605Z,100071.25
2022-11-15T04:17:41.086Z,100067.53
2022-11-15T04:20:30.142Z,100064.50
2022-11-15T04:23:16.088Z,100069.84
2022-11-15T04:25:44.340Z,100070.34
2022-11-15T04:28:12.344Z,100080.47
2022-11-15T04:30:41.595Z,100072.72
2022-11-15T04:33:09.253Z,100081.28
2022-11-15T04:35:38.296Z,100078.72
2022-11-15T04:38:07.458Z,100083.25
2022-11-15T04:40:35.217Z,100078.25
2022-11-15T04:43:04.174Z,100074.56
2022-11-15T04:45:32.101Z,100089.13
2022-11-15T04:47:59.707Z,100078.47
2022-11-15T04:50:27.378Z,100080.16
2022-11-15T04:52:56.470Z,100077.78
2022-11-15T04:55:24.255Z,100077.97
2022-11-15T04:58:00.572Z,100084.66
2022-11-15T05:00:29.421Z,100082.38
2022-11-15T05:03:14.989Z,100092.31
2022-11-15T05:05:42.841Z,100084.38
2022-11-15T05:08:11.855Z,100096.50
2022-11-15T05:10:39.539Z,100100.50
2022-11-15T05:13:07.161Z,100095.63
2022-11-15T05:15:34.813Z,100102.50
2022-11-15T05:18:02.508Z,100102.41
2022-11-15T05:20:30.216Z,100100.84
2022-11-15T05:22:57.874Z,100101.47
2022-11-15T05:25:27.534Z,100098.66
2022-11-15T05:27:55.211Z,100090.50
2022-11-15T05:30:22.976Z,100087.38
2022-11-15T05:32:50.853Z,100086.19
2022-11-15T05:35:21.805Z,100082.31
2022-11-15T05:37:50.102Z,100079.66
2022-11-15T05:40:18.140Z,100085.09
2022-11-15T05:42:48.632Z,100091.13
2022-11-15T05:45:16.500Z,100075.34
2022-11-15T05:47:44.233Z,100074.63
2022-11-15T05:50:13.622Z,100065.41
2022-11-15T05:52:41.340Z,100084.25
2022-11-15T05:55:10.137Z,100061.53
2022-11-15T05:57:38.103Z,100071.63
2022-11-15T06:00:09.119Z,100076.84
2022-11-15T06:02:36.838Z,100071.88
2022-11-15T06:05:05.088Z,100067.34
2022-11-15T06:07:32.833Z,100079.53
2022-11-15T06:10:00.485Z,100068.75
2022-11-15T06:12:28.216Z,100067.28
2022-11-15T06:14:55.849Z,100075.59
2022-11-15T06:17:24.909Z,100077.88
2022-11-15T06:19:52.584Z,100082.81
2022-11-15T06:22:20.288Z,100080.16
2022-11-15T06:24:47.916Z,100079.47
2022-11-15T06:27:15.728Z,100086.69
2022-11-15T06:29:43.489Z,100090.81
2022-11-15T06:32:11.422Z,100099.00
2022-11-15T06:34:40.435Z,100093.41
2022-11-15T06:37:08.056Z,100092.22
2022-11-15T06:39:35.745Z,100095.59
2022-11-15T06:42:03.392Z,100099.13
2022-11-15T06:44:31.036Z,100098.19
2022-11-15T06:46:58.720Z,100099.28
2022-11-15T06:49:26.348Z,100093.34
2022-11-15T06:51:55.336Z,100091.06
2022-11-15T06:54:23.310Z,100096.72
2022-11-15T06:56:51.305Z,100097.75
2022-11-15T06:59:18.974Z,100110.59
2022-11-15T07:01:46.658Z,100104.53
2022-11-15T07:04:14.431Z,100104.78
2022-11-15T07:06:42.080Z,100104.19
2022-11-15T07:09:11.075Z,100104.97
2022-11-15T07:11:38.738Z,100127.28
2022-11-15T07:14:06.380Z,100110.75
2022-11-15T07:16:34.047Z,100132.34
2022-11-15T07:19:01.877Z,100129.25
2022-11-15T07:21:29.589Z,100117.31
2022-11-15T07:23:57.284Z,100125.78
2022-11-15T07:26:26.360Z,100127.13
2022-11-15T07:28:54.096Z,100126.41
2022-11-15T07:31:21.885Z,100130.09
2022-11-15T07:33:49.500Z,100131.06
2022-11-15T07:36:17.132Z,100131.63
2022-11-15T07:38:44.793Z,100132.28
2022-11-15T07:41:12.423Z,100133.09
2022-11-15T07:43:41.576Z,100127.38
2022-11-15T07:46:10.846Z,100121.88
2022-11-15T07:48:44.527Z,100121.66
2022-11-15T07:51:14.863Z,100121.78
2022-11-15T07:53:42.804Z,100123.66
2022-11-15T07:56:11.076Z,100123.56
2022-11-15T07:58:38.822Z,100125.78
2022-11-15T08:01:08.998Z,100119.59
2022-11-15T08:03:37.148Z,100130.56
2022-11-15T08:06:05.141Z,100135.56
2022-11-15T08:08:32.810Z,100133.47
2022-11-15T08:11:00.478Z,100129.91
2022-11-15T08:13:28.262Z,100124.53
2022-11-15T08:16:00.029Z,100132.25
2022-11-15T08:18:29.028Z,100133.69
2022-11-15T08:21:00.849Z,100128.97
2022-11-15T08:23:29.033Z,100133.03
2022-11-15T08:26:01.384Z,100126.28
2022-11-15T08:28:29.091Z,100128.50
2022-11-15T08:30:56.718Z,100128.28
2022-11-15T08:33:24.379Z,100117.22
2022-11-15T08:35:53.392Z,100117.81
2022-11-15T08:38:21.036Z,100117.69
2022-11-15T08:40:48.705Z,100116.75
2022-11-15T08:43:16.355Z,100115.00
2022-11-15T08:45:44.021Z,100111.41
2022-11-15T08:48:11.684Z,100109.56
2022-11-15T08:50:39.444Z,100113.13
2022-11-15T08:53:09.475Z,100099.72
2022-11-15T08:55:38.672Z,100103.13
2022-11-15T08:58:06.518Z,100099.13
2022-11-15T09:00:35.179Z,100102.03
2022-11-15T09:03:05.879Z,100102.06
2022-11-15T09:05:33.560Z,100102.31
2022-11-15T09:08:06.589Z,100091.81
2022-11-15T09:10:42.801Z,100090.09
2022-11-15T09:13:10.449Z,100089.31
2022-11-15T09:15:38.107Z,100088.59
2022-11-15T09:18:05.885Z,100074.00
2022-11-15T09:20:34.144Z,100083.88
2022-11-15T09:23:02.947Z,100079.78
2022-11-15T09:25:30.912Z,100083.00
2022-11-15T09:28:00.146Z,100082.28
2022-11-15T09:30:27.848Z,100081.59
2022-11-15T09:32:55.579Z,100073.53
2022-11-15T09:35:23.223Z,100071.25
2022-11-15T09:37:55.974Z,100067.78
2022-11-15T09:40:24.533Z,100063.75
2022-11-15T09:43:05.079Z,100068.63
2022-11-15T09:45:36.531Z,100062.47
2022-11-15T09:48:23.543Z,100070.91
2022-11-15T09:50:54.379Z,100070.34
2022-11-15T09:54:01.214Z,100065.72
2022-11-15T09:56:18.865Z,100068.97
2022-11-15T09:58:54.929Z,100080.63
2022-11-15T10:01:30.835Z,100073.16
2022-11-15T10:04:00.135Z,100071.69
2022-11-15T10:06:28.718Z,100071.69
2022-11-15T10:09:04.520Z,100077.63
2022-11-15T10:11:38.995Z,100079.69
2022-11-15T10:14:13.278Z,100077.94
2022-11-15T10:17:10.281Z,100074.41
2022-11-15T10:19:42.945Z,100062.34
2022-11-15T10:22:20.714Z,100066.44
2022-11-15T10:24:48.970Z,100063.22
2022-11-15T10:27:18.355Z,100073.28
2022-11-15T10:29:49.030Z,100071.75
2022-11-15T10:32:20.354Z,100073.44
2022-11-15T10:34:48.812Z,100066.47
2022-11-15T10:37:16.698Z,100059.25
2022-11-15T10:39:44.376Z,100065.19
2022-11-15T10:42:19.605Z,100055.56
2022-11-15T10:44:48.636Z,100047.94
2022-11-15T10:47:28.158Z,100045.03
2022-11-15T10:50:05.445Z,100045.91
2022-11-15T10:52:35.497Z,100052.75
2022-11-15T10:55:07.719Z,100048.09
2022-11-15T10:57:38.504Z,100050.56
2022-11-15T11:00:09.903Z,100034.34
2022-11-15T11:02:39.171Z,100032.50
2022-11-15T11:05:28.088Z,100029.88
2022-11-15T11:07:59.525Z,100028.19
2022-11-15T11:13:16.301Z,100033.72
2022-11-15T11:15:47.413Z,100025.75
2022-11-15T11:18:20.523Z,100029.56
2022-11-15T11:20:52.087Z,100027.91
2022-11-15T11:23:30.669Z,100014.94
2022-11-15T11:26:31.804Z,100022.38
2022-11-15T11:29:04.915Z,100040.34
2022-11-15T11:31:38.601Z,100004.28
2022-11-15T11:34:15.543Z,100018.84
2022-11-15T11:36:48.062Z,100019.53
2022-11-15T11:39:23.491Z,100010.19
2022-11-15T11:41:59.285Z,99999.50
2022-11-15T11:44:34.256Z,99999.25
2022-11-15T11:47:04.069Z,99988.91
2022-11-15T11:49:36.680Z,100003.25
2022-11-15T11:52:11.137Z,100005.28
2022-11-15T11:54:45.289Z,100002.50
2022-11-15T11:57:17.426Z,99993.03
2022-11-15T11:59:48.989Z,99967.81
2022-11-15T12:02:22.286Z,99993.25
2022-11-15T12:04:52.620Z,99974.09
2022-11-15T12:07:25.448Z,99965.91
2022-11-15T12:09:57.149Z,99975.00
2022-11-15T12:12:32.320Z,99969.69
2022-11-15T12:15:04.498Z,99969.19
2022-11-15T12:17:34.156Z,99980.69
2022-11-15T12:20:04.470Z,99965.06
2022-11-15T12:22:39.052Z,99958.63
2022-11-15T12:25:09.942Z,99956.97
2022-11-15T12:27:40.683Z,99953.50
2022-11-15T12:30:13.178Z,99963.94
2022-11-15T12:32:52.238Z,99952.94
2022-11-15T12:35:27.304Z,99951.69
2022-11-15T12:37:58.374Z,99957.38
2022-11-15T12:40:34.879Z,99953.91
2022-11-15T12:43:35.056Z,99942.31
2022-11-15T12:46:07.399Z,99957.09
2022-11-15T12:49:01.001Z,99944.59
2022-11-15T12:52:05.950Z,99947.59
2022-11-15T12:54:55.573Z,99939.94
2022-11-15T12:57:44.123Z,99939.81
2022-11-15T13:00:44.693Z,99935.72
2022-11-15T13:03:29.758Z,99948.72
2022-11-15T13:06:05.213Z,99946.59
2022-11-15T13:08:41.031Z,99943.75
2022-11-15T13:11:41.964Z,99926.34
2022-11-15T13:14:57.237Z,99911.69
2022-11-15T13:17:30.875Z,99904.81
2022-11-15T13:20:11.424Z,99905.22
2022-11-15T13:22:55.432Z,99894.88
2022-11-15T13:25:48.832Z,99892.00
2022-11-15T13:28:23.885Z,99878.88
2022-11-15T13:30:53.472Z,99877.59
2022-11-15T13:33:23.032Z,99883.91
2022-11-15T13:35:52.945Z,99875.47
2022-11-15T13:38:28.432Z,99873.81
2022-11-15T13:40:56.596Z,99875.94
2022-11-15T13:43:31.408Z,99872.84
2022-11-15T13:46:11.699Z,99853.28
2022-11-15T13:48:39.875Z,99856.66
2022-11-15T13:51:10.791Z,99862.50
2022-11-15T13:53:42.700Z,99850.13
2022-11-15T13:56:10.568Z,99845.00
2022-11-15T13:58:39.793Z,99849.59
2022-11-15T14:01:07.866Z,99837.78
2022-11-15T14:03:38.565Z,99839.50
2022-11-15T14:06:12.885Z,99827.81
2022-11-15T14:08:42.630Z,99830.91
2022-11-15T14:11:15.267Z,99823.28
2022-11-15T14:13:43.174Z,99811.44
2022-11-15T14:16:18.425Z,99820.09
2022-11-15T14:18:48.530Z,99816.75
2022-11-15T14:21:16.608Z,99815.03
2022-11-15T14:23:45.985Z,99825.16
2022-11-15T14:26:29.640Z,99819.63
2022-11-15T14:28:57.311Z,99801.91
2022-11-15T14:31:24.953Z,99816.53
2022-11-15T14:33:52.612Z,99813.75
2022-11-15T14:36:21.884Z,99809.22
2022-11-15T14:38:51.216Z,99807.91
2022-11-15T14:41:23.862Z,99800.13
2022-11-15T14:43:52.226Z,99800.78
2022-11-15T14:46:19.970Z,99796.41
2022-11-15T14:48:47.712Z,99796.41
2022-11-15T14:51:17.765Z,99789.94
2022-11-15T14:53:46.479Z,99789.47
2022-11-15T14:56:17.103Z,99783.22
2022-11-15T14:58:44.832Z,99790.22
2022-11-15T15:01:15.423Z,99775.81
2022-11-15T15:03:44.978Z,99773.63
2022-11-15T15:06:18.039Z,99771.22
2022-11-15T15:08:46.430Z,99770.25
2022-11-15T15:11:17.243Z,99769.53
2022-11-15T15:13:44.921Z,99760.63
2022-11-15T15:16:12.599Z,99760.28
2022-11-15T15:18:40.223Z,99761.22
2022-11-15T15:21:20.943Z,99749.81
2022-11-15T15:23:48.663Z,99737.22
2022-11-15T15:26:17.729Z,99731.31
2022-11-15T15:28:45.501Z,99731.06
2022-11-15T15:31:13.205Z,99723.38
2022-11-15T15:33:40.839Z,99725.16
2022-11-15T15:36:11.631Z,99730.00
2022-11-15T15:38:40.667Z,99725.03
2022-11-15T15:41:11.615Z,99719.28
2022-11-15T15:43:41.309Z,99725.03
2022-11-15T15:46:10.931Z,99717.03
2022-11-15T15:48:40.329Z,99710.38
2022-11-15T15:51:15.514Z,99722.63
2022-11-15T15:53:47.419Z,99714.97
2022-11-15T15:56:15.312Z,99711.94
2022-11-15T15:58:44.379Z,99704.38
2022-11-15T16:01:12.063Z,99708.97
2022-11-15T16:03:39.764Z,99706.69
2022-11-15T16:06:39.012Z,99708.13
2022-11-15T16:09:16.178Z,99697.66
2022-11-15T16:11:46.364Z,99687.09
2022-11-15T16:14:15.423Z,99687.72
2022-11-15T16:16:43.089Z,99676.53
2022-11-15T16:19:11.345Z,99675.66
2022-11-15T16:21:39.000Z,99694.06
2022-11-15T16:24:06.846Z,99673.75
2022-11-15T16:26:35.093Z,99674.81
2022-11-15T16:29:02.752Z,99671.94
2022-11-15T16:31:31.795Z,99674.47
2022-11-15T16:33:59.430Z,99662.09
2022-11-15T16:36:31.253Z,99657.78
2022-11-15T16:38:59.200Z,99660.91
2022-11-15T16:41:27.121Z,99645.88
2022-11-15T16:43:54.793Z,99648.38
2022-11-15T16:46:23.315Z,99649.63
2022-11-15T16:48:52.572Z,99648.66
2022-11-15T16:51:20.224Z,99646.47
2022-11-15T16:53:49.153Z,99643.34
2022-11-15T16:56:22.913Z,99639.75
2022-11-15T16:58:50.559Z,99637.47
2022-11-15T17:01:21.091Z,99655.41
2022-11-15T17:03:48.794Z,99639.25
2022-11-15T17:06:18.659Z,99636.88
2022-11-15T17:08:46.993Z,99632.78
2022-11-15T17:11:16.663Z,99645.94
2022-11-15T17:13:44.556Z,99635.13
2022-11-15T17:16:14.290Z,99616.69
2022-11-15T17:18:44.987Z,99611.16
2022-11-15T17:21:14.893Z,99610.94
2022-11-15T17:23:44.119Z,99618.59
2022-11-15T17:26:28.687Z,99620.28
2022-11-15T17:28:59.177Z,99619.44
2022-11-15T17:31:27.054Z,99610.53
2022-11-15T17:33:54.864Z,99625.41
2022-11-15T17:36:22.804Z,99617.81
2022-11-15T17:38:58.084Z,99622.91
2022-11-15T17:41:27.703Z,99605.84
2022-11-15T17:43:57.934Z,99620.56
2022-11-15T17:46:26.132Z,99605.00
2022-11-15T17:48:53.787Z,99611.16
2022-11-15T17:51:23.036Z,99598.56
2022-11-15T17:53:52.934Z,99593.63
2022-11-15T17:56:21.905Z,99598.22
2022-11-15T17:58:50.400Z,99605.59
2022-11-15T18:01:20.397Z,99594.81
2022-11-15T18:03:48.691Z,99598.44
2022-11-15T18:06:17.006Z,99580.81
2022-11-15T18:08:46.453Z,99584.03
2022-11-15T18:11:17.321Z,99588.09
2022-11-15T18:13:51.923Z,99593.25
2022-11-15T18:16:21.559Z,99598.47
2022-11-15T18:18:49.404Z,99583.03
2022-11-15T18:21:18.517Z,99592.00
2022-11-15T18:23:46.784Z,99590.13
2022-11-15T18:26:17.041Z,99581.34
2022-11-15T18:28:46.997Z,99553.78
2022-11-15T18:31:15.912Z,99562.25
2022-11-15T18:33:43.959Z,99557.09
2022-11-15T18:36:13.904Z,99554.41
2022-11-15T18:38:41.707Z,99551.63
2022-11-15T18:41:10.650Z,99540.22
2022-11-15T18:43:40.525Z,99539.44
2022-11-15T18:46:09.993Z,99533.38
2022-11-15T18:48:39.688Z,99541.72
2022-11-15T18:51:08.336Z,99546.28
2022-11-15T18:53:37.112Z,99550.84
2022-11-15T18:56:06.792Z,99541.25
2022-11-15T18:58:35.995Z,99552.91
2022-11-15T19:01:06.649Z,99543.38
2022-11-15T19:03:35.792Z,99549.19
2022-11-15T19:06:04.905Z,99546.47
2022-11-15T19:08:35.396Z,99544.22
2022-11-15T19:11:05.024Z,99555.13
2022-11-15T19:13:33.370Z,99530.88
2022-11-15T19:16:02.649Z,99534.66
2022-11-15T19:18:32.336Z,99534.47
2022-11-15T19:21:03.331Z,99537.44
2022-11-15T19:23:34.496Z,99526.22
2022-11-15T19:26:03.898Z,99526.75
2022-11-15T19:28:32.089Z,99521.91
2022-11-15T19:31:04.867Z,99519.97
2022-11-15T19:33:34.423Z,99526.47
2022-11-15T19:36:02.614Z,99523.06
2022-11-15T19:38:31.780Z,99519.56
2022-11-15T19:41:00.437Z,99532.09
2022-11-15T19:43:28.925Z,99527.06
2022-11-15T19:46:02.085Z,99526.22
2022-11-15T19:48:31.614Z,99515.91
2022-11-15T19:51:03.041Z,99521.72
2022-11-15T19:53:35.138Z,99526.31
2022-11-15T19:56:04.453Z,99517.38
2022-11-15T19:58:33.887Z,99515.72
2022-11-15T20:01:03.124Z,99509.91
2022-11-15T20:03:31.614Z,99504.56
2022-11-15T20:06:04.812Z,99502.09
2022-11-15T20:08:32.914Z,99502.28
2022-11-15T20:11:01.373Z,99492.88
2022-11-15T20:13:29.335Z,99490.72
2022-11-15T20:15:57.553Z,99497.00
2022-11-15T20:18:26.447Z,99493.78
2022-11-15T20:20:55.199Z,99502.88
2022-11-15T20:23:24.216Z,99493.44
2022-11-15T20:25:51.881Z,99484.72
2022-11-15T20:28:21.181Z,99488.34
2022-11-15T20:30:49.500Z,99482.69
2022-11-15T20:33:17.163Z,99467.94
2022-11-15T20:35:45.170Z,99478.69
2022-11-15T20:38:13.236Z,99474.28
2022-11-15T20:40:42.624Z,99479.66
2022-11-15T20:43:13.042Z,99467.03
2022-11-15T20:45:40.690Z,99474.19
2022-11-15T20:48:08.392Z,99475.63
2022-11-15T20:50:42.746Z,99466.50
2022-11-15T20:53:12.511Z,99473.94
2022-11-15T20:55:42.309Z,99466.75
2022-11-15T20:58:10.827Z,99476.06
2022-11-15T21:00:38.945Z,99467.94
2022-11-15T21:03:07.045Z,99469.72
2022-11-15T21:05:35.399Z,99472.34
2022-11-15T21:08:03.131Z,99468.41
2022-11-15T21:10:48.520Z,99457.94
2022-11-15T21:13:17.587Z,99465.47
2022-11-15T21:15:45.239Z,99460.44
2022-11-15T21:18:13.261Z,99461.69
2022-11-15T21:20:41.368Z,99459.03
2022-11-15T21:23:09.149Z,99463.47
2022-11-15T21:25:36.816Z,99461.78
2022-11-15T21:28:04.620Z,99460.00
2022-11-15T21:30:33.621Z,99461.66
2022-11-15T21:33:01.288Z,99453.03
2022-11-15T21:35:29.328Z,99456.31
2022-11-15T21:37:57.346Z,99450.56
2022-11-15T21:40:25.132Z,99449.78
2022-11-15T21:42:52.753Z,99443.84
2022-11-15T21:45:20.400Z,99444.56
2022-11-15T21:47:49.368Z,99447.28
2022-11-15T21:50:17.608Z,99443.63
2022-11-15T21:52:46.917Z,99439.06
2022-11-15T21:55:14.655Z,99425.53
2022-11-15T21:57:42.339Z,99427.66
2022-11-15T22:00:28.456Z,99427.03
2022-11-15T22:02:57.441Z,99433.00
2022-11-15T22:05:25.156Z,99422.47
2022-11-15T22:07:52.820Z,99422.88
2022-11-15T22:10:20.521Z,99419.59
2022-11-15T22:12:48.128Z,99421.75
2022-11-15T22:15:15.808Z,99418.63
2022-11-15T22:17:58.764Z,99408.38
2022-11-15T22:20:43.940Z,99413.53
2022-11-15T22:23:12.565Z,99401.47
2022-11-15T22:25:41.302Z,99407.59
2022-11-15T22:28:09.073Z,99403.13
2022-11-15T22:30:36.868Z,99396.75
2022-11-15T22:33:04.674Z,99401.13
2022-11-15T22:35:35.292Z,99393.38
2022-11-15T22:38:03.321Z,99386.53
2022-11-15T22:40:31.247Z,99377.28
2022-11-15T22:42:59.017Z,99394.16
2022-11-15T22:45:26.841Z,99399.19
2022-11-15T22:47:54.623Z,99393.75
2022-11-15T22:50:24.031Z,99396.00
2022-11-15T22:52:53.330Z,99385.06
2022-11-15T22:55:21.127Z,99377.13
2022-11-15T22:57:48.916Z,99380.00
2022-11-15T23:00:18.584Z,99377.72
2022-11-15T23:02:49.527Z,99375.69
2022-11-15T23:05:19.624Z,99372.09
2022-11-15T23:07:47.400Z,99375.00
2022-11-15T23:10:33.247Z,99378.72
2022-11-15T23:13:19.489Z,99369.19
2022-11-15T23:16:06.577Z,99369.16
2022-11-15T23:18:35.649Z,99370.78
2022-11-15T23:21:10.011Z,99357.78
2022-11-15T23:23:36.800Z,99364.03
2022-11-15T23:26:06.397Z,99356.34
2022-11-15T23:28:35.346Z,99368.84
2022-11-15T23:31:22.239Z,99362.44
2022-11-15T23:33:58.960Z,99357.72
2022-11-15T23:36:27.368Z,99354.88
2022-11-15T23:38:55.140Z,99359.31
2022-11-15T23:41:24.864Z,99360.44
2022-11-15T23:43:52.876Z,99358.63
2022-11-15T23:46:20.785Z,99355.00
2022-11-15T23:48:48.585Z,99350.88
2022-11-15T23:51:16.403Z,99355.53
2022-11-15T23:53:44.200Z,99347.84
2022-11-15T23:56:13.563Z,99350.56
2022-11-15T23:58:43.271Z,99354.75
